createdAt,value
2022-09-07T00:00:36.500Z,95298.75
2022-09-07T00:01:34.807Z,95304.77
2022-09-07T00:02:34.806Z,95297.38
2022-09-07T00:03:34.853Z,95292.67
2022-09-07T00:04:34.827Z,95293.07
2022-09-07T00:05:34.769Z,95290.84
2022-09-07T00:06:34.753Z,95290.53
2022-09-07T00:07:34.744Z,95285.11
2022-09-07T00:08:34.725Z,95296.27
2022-09-07T00:09:34.725Z,95292.04
2022-09-07T00:10:34.713Z,95297.69
2022-09-07T00:11:34.720Z,95296.58
2022-09-07T00:12:34.706Z,95298.67
2022-09-07T00:13:34.705Z,95294.28
2022-09-07T00:14:34.692Z,95291.97
2022-09-07T00:15:34.691Z,95287.57
2022-09-07T00:16:34.739Z,95287.57
2022-09-07T00:17:34.657Z,95290.59
2022-09-07T00:18:34.650Z,95285.34
2022-09-07T00:19:34.643Z,95287.16
2022-09-07T00:20:34.629Z,95282.78
2022-09-07T00:21:34.624Z,95282.06
2022-09-07T00:22:34.617Z,95276.12
2022-09-07T00:23:34.604Z,95272.06
2022-09-07T00:24:34.601Z,95265.91
2022-09-07T00:25:34.596Z,95270.48
2022-09-07T00:26:34.595Z,95262.89
2022-09-07T00:27:34.576Z,95263.86
2022-09-07T00:28:34.578Z,95264.42
2022-09-07T00:29:34.567Z,95265.28
2022-09-07T00:30:34.575Z,95260.74
2022-09-07T00:31:34.585Z,95266.39
2022-09-07T00:32:34.525Z,95261.74
2022-09-07T00:33:34.515Z,95259.61
2022-09-07T00:34:34.516Z,95256.66
2022-09-07T00:35:34.510Z,95250.55
2022-09-07T00:36:34.597Z,95250.73
2022-09-07T00:37:34.490Z,95241.46
2022-09-07T00:38:34.491Z,95239.02
2022-09-07T00:39:34.518Z,95237.56
2022-09-07T00:40:34.458Z,95238.56
2022-09-07T00:41:34.461Z,95236.20
2022-09-07T00:42:34.469Z,95234.73
2022-09-07T00:43:34.443Z,95235.21
2022-09-07T00:44:34.430Z,95233.08
2022-09-07T00:45:34.426Z,95235.24
2022-09-07T00:46:34.483Z,95232.15
2022-09-07T00:47:34.400Z,95239.74
2022-09-07T00:48:34.401Z,95241.27
2022-09-07T00:49:34.381Z,95237.53
2022-09-07T00:50:34.374Z,95234.98
2022-09-07T00:51:34.376Z,95232.50
2022-09-07T00:52:34.374Z,95235.33
2022-09-07T00:53:34.353Z,95237.48
2022-09-07T00:54:34.369Z,95237.34
2022-09-07T00:55:34.346Z,95236.28
2022-09-07T00:56:34.326Z,95236.73
2022-09-07T00:57:34.328Z,95235.21
2022-09-07T00:58:34.310Z,95232.28
2022-09-07T00:59:34.310Z,95235.08
2022-09-07T01:00:34.316Z,95235.04
2022-09-07T01:01:34.459Z,95232.56
2022-09-07T01:02:34.412Z,95229.68
2022-09-07T01:03:34.261Z,95227.05
2022-09-07T01:04:34.271Z,95234.11
2022-09-07T01:05:34.248Z,95232.38
2022-09-07T01:06:34.258Z,95228.81
2022-09-07T01:07:34.243Z,95232.36
2022-09-07T01:08:34.220Z,95234.32
2022-09-07T01:09:34.224Z,95235.87
2022-09-07T01:10:34.225Z,95227.52
2022-09-07T01:11:34.190Z,95228.03
2022-09-07T01:12:34.191Z,95226.73
2022-09-07T01:13:34.172Z,95223.64
2022-09-07T01:14:34.185Z,95227.25
2022-09-07T01:15:34.226Z,95219.83
2022-09-07T01:16:34.153Z,95221.40
2022-09-07T01:17:34.146Z,95224.54
2022-09-07T01:18:34.156Z,95229.20
2022-09-07T01:19:34.124Z,95222.81
2022-09-07T01:20:34.125Z,95232.10
2022-09-07T01:21:34.108Z,95235.79
2022-09-07T01:22:34.105Z,95234.83
2022-09-07T01:23:34.093Z,95232.98
2022-09-07T01:24:34.109Z,95226.89
2022-09-07T01:25:34.090Z,95233.42
2022-09-07T01:26:34.069Z,95235.79
2022-09-07T01:27:34.058Z,95238.75
2022-09-07T01:28:34.058Z,95237.11
2022-09-07T01:29:34.038Z,95237.80
2022-09-07T01:30:34.071Z,95238.38
2022-09-07T01:31:34.050Z,95243.44
2022-09-07T01:32:34.021Z,95245.41
2022-09-07T01:33:34.008Z,95264.62
2022-09-07T01:34:34.013Z,95261.36
2022-09-07T01:35:34.004Z,95262.61
2022-09-07T01:36:33.991Z,95264.12
2022-09-07T01:37:33.971Z,95264.69
2022-09-07T01:38:33.971Z,95267.06
2022-09-07T01:39:34.001Z,95262.94
2022-09-07T01:40:33.956Z,95259.05
2022-09-07T01:41:33.948Z,95249.70
2022-09-07T01:42:33.964Z,95242.38
2022-09-07T01:43:33.929Z,95244.10
2022-09-07T01:44:33.929Z,95231.55
2022-09-07T01:45:33.906Z,95233.61
2022-09-07T01:46:33.927Z,95232.41
2022-09-07T01:47:33.901Z,95235.50
2022-09-07T01:48:34.029Z,95229.11
2022-09-07T01:49:33.880Z,95233.89
2022-09-07T01:50:33.879Z,95227.12
2022-09-07T01:51:33.847Z,95230.73
2022-09-07T01:52:33.862Z,95230.78
2022-09-07T01:53:33.841Z,95229.03
2022-09-07T01:54:33.942Z,95231.69
2022-09-07T01:55:33.832Z,95232.05
2022-09-07T01:56:33.824Z,95231.09
2022-09-07T01:57:33.801Z,95227.28
2022-09-07T01:58:33.800Z,95225.39
2022-09-07T01:59:33.781Z,95225.25
2022-09-07T02:00:33.791Z,95221.78
2022-09-07T02:01:33.803Z,95223.33
2022-09-07T02:02:33.837Z,95223.75
2022-09-07T02:03:33.756Z,95219.55
2022-09-07T02:04:33.757Z,95218.14
2022-09-07T02:05:33.747Z,95212.10
2022-09-07T02:06:33.747Z,95216.33
2022-09-07T02:07:33.714Z,95216.39
2022-09-07T02:08:33.712Z,95211.07
2022-09-07T02:09:33.708Z,95211.93
2022-09-07T02:10:33.700Z,95206.33
2022-09-07T02:11:33.689Z,95207.43
2022-09-07T02:12:33.685Z,95206.91
2022-09-07T02:13:33.666Z,95205.38
2022-09-07T02:14:33.671Z,95207.77
2022-09-07T02:15:33.742Z,95202.49
2022-09-07T02:16:33.651Z,95203.80
2022-09-07T02:17:33.642Z,95203.73
2022-09-07T02:18:33.653Z,95208.52
2022-09-07T02:19:33.622Z,95211.12
2022-09-07T02:20:33.613Z,95217.14
2022-09-07T02:21:33.603Z,95214.61
2022-09-07T02:22:33.591Z,95219.78
2022-09-07T02:23:33.620Z,95216.83
2022-09-07T02:24:33.581Z,95219.52
2022-09-07T02:25:33.575Z,95218.84
2022-09-07T02:26:33.552Z,95223.28
2022-09-07T02:27:33.542Z,95221.56
2022-09-07T02:28:33.546Z,95224.76
2022-09-07T02:29:33.537Z,95218.58
2022-09-07T02:30:33.548Z,95230.63
2022-09-07T02:31:33.603Z,95230.11
2022-09-07T02:32:33.504Z,95227.73
2022-09-07T02:33:33.509Z,95232.68
2022-09-07T02:34:33.485Z,95230.86
2022-09-07T02:35:33.475Z,95233.12
2022-09-07T02:36:33.485Z,95235.62
2022-09-07T02:37:33.456Z,95238.20
2022-09-07T02:38:33.457Z,95234.70
2022-09-07T02:39:33.482Z,95240.31
2022-09-07T02:40:33.437Z,95235.36
2022-09-07T02:41:33.426Z,95234.33
2022-09-07T02:42:33.452Z,95238.52
2022-09-07T02:43:33.409Z,95233.92
2022-09-07T02:44:33.423Z,95235.27
2022-09-07T02:45:33.404Z,95232.86
2022-09-07T02:46:33.458Z,95234.06
2022-09-07T02:47:33.386Z,95236.02
2022-09-07T02:48:33.396Z,95233.55
2022-09-07T02:49:33.361Z,95238.05
2022-09-07T02:50:33.371Z,95233.97
2022-09-07T02:51:33.344Z,95233.20
2022-09-07T02:52:33.346Z,95233.94
2022-09-07T02:53:33.338Z,95234.88
2022-09-07T02:54:33.334Z,95230.17
2022-09-07T02:55:33.322Z,95236.70
2022-09-07T02:56:33.316Z,95240.82
2022-09-07T02:57:33.284Z,95244.28
2022-09-07T02:58:33.298Z,95241.61
2022-09-07T02:59:33.288Z,95250.02
2022-09-07T03:00:33.299Z,95244.42
2022-09-07T03:01:33.308Z,95250.41
2022-09-07T03:02:33.296Z,95257.16
2022-09-07T03:03:33.250Z,95254.69
2022-09-07T03:04:33.250Z,95253.80
2022-09-07T03:05:33.218Z,95252.49
2022-09-07T03:06:33.228Z,95254.41
2022-09-07T03:07:35.869Z,95255.34
2022-09-07T03:08:33.213Z,95253.62
2022-09-07T03:09:33.203Z,95255.17
2022-09-07T03:10:33.193Z,95254.55
2022-09-07T03:11:33.184Z,95253.97
2022-09-07T03:12:33.181Z,95253.56
2022-09-07T03:13:33.179Z,95254.59
2022-09-07T03:14:33.165Z,95250.89
2022-09-07T03:15:33.293Z,95254.30
2022-09-07T03:16:33.146Z,95257.07
2022-09-07T03:17:33.135Z,95276.22
2022-09-07T03:18:33.136Z,95292.02
2022-09-07T03:19:33.103Z,95305.25
2022-09-07T03:20:33.107Z,95305.84
2022-09-07T03:21:33.084Z,95308.22
2022-09-07T03:22:33.086Z,95300.72
2022-09-07T03:23:33.074Z,95298.31
2022-09-07T03:24:33.089Z,95293.62
2022-09-07T03:25:33.060Z,95300.48
2022-09-07T03:26:33.047Z,95293.99
2022-09-07T03:27:33.049Z,95293.75
2022-09-07T03:28:33.027Z,95288.36
2022-09-07T03:29:33.031Z,95287.15
2022-09-07T03:30:33.080Z,95284.58
2022-09-07T03:31:33.012Z,95284.58
2022-09-07T03:32:33.015Z,95283.77
2022-09-07T03:33:32.992Z,95280.51
2022-09-07T03:34:32.979Z,95273.50
2022-09-07T03:35:32.972Z,95280.44
2022-09-07T03:36:32.974Z,95274.17
2022-09-07T03:37:32.952Z,95278.77
2022-09-07T03:38:33.004Z,95277.23
2022-09-07T03:39:33.031Z,95279.62
2022-09-07T03:40:32.932Z,95279.38
2022-09-07T03:41:32.926Z,95278.52
2022-09-07T03:42:32.932Z,95279.03
2022-09-07T03:43:32.914Z,95287.48
2022-09-07T03:44:32.894Z,95276.34
2022-09-07T03:45:32.882Z,95273.97
2022-09-07T03:46:32.972Z,95269.92
2022-09-07T03:47:32.864Z,95275.48
2022-09-07T03:48:32.866Z,95277.02
2022-09-07T03:49:32.846Z,95274.31
2022-09-07T03:50:32.847Z,95270.12
2022-09-07T03:51:32.835Z,95273.48
2022-09-07T03:52:32.828Z,95271.08
2022-09-07T03:53:32.817Z,95274.55
2022-09-07T03:54:35.751Z,95279.56
2022-09-07T03:55:32.801Z,95275.02
2022-09-07T03:56:32.802Z,95276.94
2022-09-07T03:57:32.779Z,95273.95
2022-09-07T03:58:32.870Z,95274.88
2022-09-07T03:59:32.773Z,95273.60
2022-09-07T04:00:32.860Z,95274.56
2022-09-07T04:01:32.825Z,95275.49
2022-09-07T04:02:32.770Z,95271.91
2022-09-07T04:03:32.731Z,95271.43
2022-09-07T04:04:32.736Z,95271.39
2022-09-07T04:05:32.713Z,95272.80
2022-09-07T04:06:32.872Z,95273.66
2022-09-07T04:07:32.706Z,95270.62
2022-09-07T04:08:32.850Z,95279.28
2022-09-07T04:09:32.688Z,95274.73
2022-09-07T04:10:32.688Z,95279.07
2022-09-07T04:11:32.678Z,95278.31
2022-09-07T04:12:32.665Z,95284.43
2022-09-07T04:13:32.658Z,95282.88
2022-09-07T04:14:32.654Z,95276.24
2022-09-07T04:15:32.626Z,95280.41
2022-09-07T04:16:32.681Z,95276.89
2022-09-07T04:17:32.622Z,95277.09
2022-09-07T04:18:32.644Z,95279.25
2022-09-07T04:19:32.598Z,95282.18
2022-09-07T04:20:32.588Z,95279.80
2022-09-07T04:21:32.593Z,95283.27
2022-09-07T04:22:32.583Z,95280.83
2022-09-07T04:23:32.559Z,95276.66
2022-09-07T04:24:32.585Z,95275.22
2022-09-07T04:25:32.554Z,95275.19
2022-09-07T04:26:32.550Z,95278.41
2022-09-07T04:27:32.544Z,95275.94
2022-09-07T04:28:32.531Z,95278.00
2022-09-07T04:29:32.525Z,95277.66
2022-09-07T04:30:32.547Z,95278.20
2022-09-07T04:31:32.494Z,95282.08
2022-09-07T04:32:32.498Z,95287.83
2022-09-07T04:33:32.488Z,95278.72
2022-09-07T04:34:32.475Z,95285.25
2022-09-07T04:35:32.464Z,95283.19
2022-09-07T04:36:32.468Z,95285.34
2022-09-07T04:37:32.459Z,95280.95
2022-09-07T04:38:32.602Z,95285.25
2022-09-07T04:39:32.495Z,95283.21
2022-09-07T04:40:32.430Z,95288.12
2022-09-07T04:41:32.440Z,95292.55
2022-09-07T04:42:32.418Z,95292.83
2022-09-07T04:43:32.397Z,95290.66
2022-09-07T04:44:32.378Z,95290.94
2022-09-07T04:45:32.394Z,95296.71
2022-09-07T04:46:32.369Z,95299.12
2022-09-07T04:47:32.374Z,95298.26
2022-09-07T04:48:32.371Z,95300.42
2022-09-07T04:49:32.354Z,95301.52
2022-09-07T04:50:32.344Z,95303.42
2022-09-07T04:51:32.321Z,95301.97
2022-09-07T04:52:32.325Z,95298.36
2022-09-07T04:53:32.325Z,95295.16
2022-09-07T04:54:32.303Z,95300.48
2022-09-07T04:55:32.306Z,95295.44
2022-09-07T04:56:32.284Z,95294.50
2022-09-07T04:57:32.297Z,95292.06
2022-09-07T04:58:32.300Z,95290.72
2022-09-07T04:59:32.268Z,95300.20
2022-09-07T05:00:32.268Z,95298.83
2022-09-07T05:01:32.376Z,95294.02
2022-09-07T05:02:32.289Z,95296.94
2022-09-07T05:03:32.240Z,95300.72
2022-09-07T05:04:32.220Z,95297.45
2022-09-07T05:05:32.206Z,95293.19
2022-09-07T05:06:32.230Z,95293.19
2022-09-07T05:07:32.190Z,95300.20
2022-09-07T05:08:32.178Z,95298.31
2022-09-07T05:09:32.178Z,95301.31
2022-09-07T05:10:32.161Z,95296.98
2022-09-07T05:11:32.158Z,95296.88
2022-09-07T05:12:32.150Z,95296.64
2022-09-07T05:13:32.155Z,95293.38
2022-09-07T05:14:32.129Z,95297.50
2022-09-07T05:15:32.136Z,95305.23
2022-09-07T05:16:32.240Z,95303.69
2022-09-07T05:17:32.102Z,95300.25
2022-09-07T05:18:32.116Z,95303.31
2022-09-07T05:19:32.093Z,95302.14
2022-09-07T05:20:32.075Z,95298.88
2022-09-07T05:21:32.087Z,95306.34
2022-09-07T05:22:32.062Z,95306.61
2022-09-07T05:23:32.068Z,95312.22
2022-09-07T05:24:32.068Z,95307.23
2022-09-07T05:25:32.051Z,95308.98
2022-09-07T05:26:32.026Z,95308.63
2022-09-07T05:27:32.039Z,95313.89
2022-09-07T05:28:32.254Z,95315.02
2022-09-07T05:31:31.988Z,95317.52
2022-09-07T05:32:31.978Z,95314.94
2022-09-07T05:34:32.518Z,95318.82
2022-09-07T05:35:31.965Z,95321.12
2022-09-07T05:36:31.973Z,95326.57
2022-09-07T05:37:31.930Z,95324.54
2022-09-07T05:38:31.933Z,95323.53
2022-09-07T05:39:32.017Z,95323.30
2022-09-07T05:40:31.908Z,95321.81
2022-09-07T05:41:31.903Z,95323.78
2022-09-07T05:42:31.914Z,95323.67
2022-09-07T05:43:31.883Z,95322.44
2022-09-07T05:44:47.417Z,95321.27
2022-09-07T05:45:31.875Z,95315.97
2022-09-07T05:46:31.853Z,95312.33
2022-09-07T05:47:31.844Z,95310.95
2022-09-07T05:48:31.983Z,95310.95
2022-09-07T05:49:31.834Z,95312.47
2022-09-07T05:50:31.815Z,95309.25
2022-09-07T05:51:31.819Z,95313.98
2022-09-07T05:52:31.810Z,95311.21
2022-09-07T05:53:31.810Z,95311.55
2022-09-07T05:54:31.803Z,95312.44
2022-09-07T05:55:31.793Z,95313.12
2022-09-07T05:56:31.783Z,95319.15
2022-09-07T05:57:31.767Z,95316.08
2022-09-07T05:58:31.906Z,95319.55
2022-09-07T05:59:31.751Z,95322.95
2022-09-07T06:00:31.764Z,95322.41
2022-09-07T06:01:31.745Z,95320.01
2022-09-07T06:02:33.688Z,95329.77
2022-09-07T06:03:31.784Z,95324.88
2022-09-07T06:04:31.715Z,95328.25
2022-09-07T06:05:31.705Z,95319.72
2022-09-07T06:06:31.701Z,95313.98
2022-09-07T06:07:31.681Z,95324.22
2022-09-07T06:08:31.764Z,95320.89
2022-09-07T06:09:31.682Z,95326.91
2022-09-07T06:10:46.874Z,95319.55
2022-09-07T06:11:31.657Z,95320.71
2022-09-07T06:12:31.652Z,95320.34
2022-09-07T06:13:31.736Z,95320.66
2022-09-07T06:14:31.630Z,95320.03
2022-09-07T06:15:31.628Z,95319.80
2022-09-07T06:16:31.637Z,95317.48
2022-09-07T06:17:31.611Z,95319.41
2022-09-07T06:18:31.588Z,95320.34
2022-09-07T06:19:31.578Z,95323.36
2022-09-07T06:20:31.567Z,95325.97
2022-09-07T06:21:31.580Z,95320.69
2022-09-07T06:22:31.572Z,95319.20
2022-09-07T06:23:31.643Z,95324.48
2022-09-07T06:24:31.550Z,95328.06
2022-09-07T06:25:31.530Z,95329.81
2022-09-07T06:26:31.524Z,95320.72
2022-09-07T06:27:31.511Z,95323.20
2022-09-07T06:28:31.511Z,95322.76
2022-09-07T06:29:31.491Z,95319.80
2022-09-07T06:30:31.505Z,95331.01
2022-09-07T06:31:31.583Z,95317.74
2022-09-07T06:32:46.846Z,95318.36
2022-09-07T06:33:31.463Z,95313.96
2022-09-07T06:34:31.444Z,95313.41
2022-09-07T06:35:31.457Z,95320.44
2022-09-07T06:36:31.443Z,95323.94
2022-09-07T06:37:31.425Z,95323.48
2022-09-07T06:38:32.031Z,95321.08
2022-09-07T06:39:31.436Z,95323.88
2022-09-07T06:40:31.410Z,95314.66
2022-09-07T06:42:31.401Z,95324.94
2022-09-07T06:43:31.461Z,95321.33
2022-09-07T06:44:31.379Z,95318.50
2022-09-07T06:45:31.391Z,95316.20
2022-09-07T06:47:31.338Z,95316.42
2022-09-07T06:48:31.496Z,95315.73
2022-09-07T06:49:31.340Z,95318.48
2022-09-07T06:50:31.323Z,95314.98
2022-09-07T06:51:31.326Z,95317.34
2022-09-07T06:55:31.284Z,95316.34
2022-09-07T06:56:31.263Z,95310.33
2022-09-07T06:57:31.274Z,95315.00
2022-09-07T06:58:31.337Z,95318.30
2022-09-07T06:59:31.233Z,95315.05
2022-09-07T07:00:31.233Z,95316.77
2022-09-07T07:01:31.294Z,95321.09
2022-09-07T07:02:31.219Z,95320.69
2022-09-07T07:03:31.256Z,95323.98
2022-09-07T07:04:32.408Z,95318.27
2022-09-07T07:05:31.186Z,95325.89
2022-09-07T07:06:31.185Z,95326.47
2022-09-07T07:07:31.168Z,95326.01
2022-09-07T07:08:31.344Z,95320.09
2022-09-07T07:09:31.169Z,95321.66
2022-09-07T07:10:31.151Z,95326.04
2022-09-07T07:11:31.150Z,95326.91
2022-09-07T07:13:37.139Z,95329.62
2022-09-07T07:14:39.594Z,95330.04
2022-09-07T07:15:37.108Z,95331.21
2022-09-07T07:16:37.148Z,95337.94
2022-09-07T07:17:37.128Z,95334.80
2022-09-07T07:18:37.274Z,95329.62
2022-09-07T07:19:37.094Z,95325.80
2022-09-07T07:20:37.075Z,95328.71
2022-09-07T07:21:55.210Z,95325.77
2022-09-07T07:22:52.505Z,95326.70
2022-09-07T07:23:37.051Z,95333.20
2022-09-07T07:24:37.046Z,95336.11
2022-09-07T07:25:37.035Z,95338.08
2022-09-07T07:26:37.029Z,95340.98
2022-09-07T07:27:37.026Z,95346.69
2022-09-07T07:29:37.028Z,95341.08
2022-09-07T07:30:36.988Z,95342.51
2022-09-07T07:31:36.984Z,95343.05
2022-09-07T07:32:36.965Z,95344.14
2022-09-07T07:33:36.971Z,95342.06
2022-09-07T07:34:37.072Z,95350.06
2022-09-07T07:35:36.956Z,95348.95
2022-09-07T07:36:36.940Z,95348.53
2022-09-07T07:37:36.928Z,95347.94
2022-09-07T07:40:39.157Z,95350.97
2022-09-07T07:42:36.882Z,95354.96
2022-09-07T07:43:36.869Z,95349.59
2022-09-07T07:44:36.874Z,95358.55
2022-09-07T07:46:36.903Z,95352.77
2022-09-07T07:47:36.852Z,95356.28
2022-09-07T07:48:36.836Z,95351.27
2022-09-07T07:49:36.824Z,95355.50
2022-09-07T07:50:36.802Z,95353.14
2022-09-07T07:53:41.122Z,95353.98
2022-09-07T07:53:41.896Z,95353.77
2022-09-07T07:54:36.849Z,95350.33
2022-09-07T07:55:44.533Z,95348.79
2022-09-07T07:56:36.777Z,95350.21
2022-09-07T07:57:36.768Z,95359.09
2022-09-07T07:58:36.753Z,95356.95
2022-09-07T07:59:36.763Z,95355.45
2022-09-07T08:00:53.082Z,95359.37
2022-09-07T08:01:36.784Z,95356.86
2022-09-07T08:02:36.779Z,95367.22
2022-09-07T08:03:36.720Z,95368.92
2022-09-07T08:04:36.702Z,95367.71
2022-09-07T08:05:36.689Z,95366.51
2022-09-07T08:06:36.670Z,95367.09
2022-09-07T08:07:36.683Z,95364.95
2022-09-07T08:08:36.670Z,95366.33
2022-09-07T08:09:36.665Z,95368.94
2022-09-07T08:10:36.654Z,95371.45
2022-09-07T08:11:36.655Z,95364.39
2022-09-07T08:12:36.622Z,95366.36
2022-09-07T08:13:36.636Z,95367.81
2022-09-07T08:14:36.618Z,95371.34
2022-09-07T08:15:36.617Z,95363.36
2022-09-07T08:16:36.661Z,95363.08
2022-09-07T08:17:36.617Z,95362.91
2022-09-07T08:18:36.579Z,95364.56
2022-09-07T08:19:36.578Z,95362.59
2022-09-07T08:20:36.569Z,95361.04
2022-09-07T08:21:36.548Z,95358.75
2022-09-07T08:22:36.542Z,95358.19
2022-09-07T08:23:36.557Z,95357.94
2022-09-07T08:24:36.529Z,95356.24
2022-09-07T08:25:36.530Z,95358.53
2022-09-07T08:26:36.497Z,95356.80
2022-09-07T08:27:36.512Z,95358.62
2022-09-07T08:28:36.487Z,95355.13
2022-09-07T08:29:36.491Z,95358.73
2022-09-07T08:30:36.469Z,95358.72
2022-09-07T08:31:36.508Z,95357.49
2022-09-07T08:32:36.450Z,95358.30
2022-09-07T08:33:36.450Z,95352.17
2022-09-07T08:34:36.434Z,95353.97
2022-09-07T08:35:36.456Z,95356.40
2022-09-07T08:36:36.419Z,95354.06
2022-09-07T08:37:36.426Z,95354.88
2022-09-07T08:38:36.415Z,95352.31
2022-09-07T08:39:36.490Z,95354.45
2022-09-07T08:40:36.397Z,95349.40
2022-09-07T08:41:36.404Z,95350.85
2022-09-07T08:42:36.364Z,95350.55
2022-09-07T08:43:36.379Z,95348.25
2022-09-07T08:44:36.355Z,95353.39
2022-09-07T08:45:36.359Z,95349.84
2022-09-07T08:46:36.417Z,95351.92
2022-09-07T08:47:36.337Z,95351.86
2022-09-07T08:48:36.330Z,95350.89
2022-09-07T08:49:36.328Z,95352.48
2022-09-07T08:50:36.297Z,95351.00
2022-09-07T08:51:36.297Z,95351.22
2022-09-07T08:52:36.286Z,95348.94
2022-09-07T08:53:36.299Z,95346.74
2022-09-07T08:54:36.272Z,95350.08
2022-09-07T08:55:36.260Z,95346.92
2022-09-07T08:56:36.415Z,95347.34
2022-09-07T08:57:36.240Z,95346.41
2022-09-07T08:58:51.493Z,95353.94
2022-09-07T08:59:36.242Z,95350.69
2022-09-07T09:00:36.232Z,95349.67
2022-09-07T09:01:37.056Z,95343.55
2022-09-07T09:02:42.214Z,95338.38
2022-09-07T09:05:18.509Z,95337.39
2022-09-07T09:06:02.302Z,95336.20
2022-09-07T09:07:02.293Z,95334.49
2022-09-07T09:08:02.123Z,95335.10
2022-09-07T09:09:02.110Z,95334.61
2022-09-07T09:10:02.114Z,95334.81
2022-09-07T09:11:02.101Z,95337.89
2022-09-07T09:12:02.091Z,95332.92
2022-09-07T09:13:02.080Z,95327.80
2022-09-07T09:14:02.072Z,95328.45
2022-09-07T09:15:02.053Z,95330.50
2022-09-07T09:16:02.119Z,95327.80
2022-09-07T09:17:02.061Z,95324.88
2022-09-07T09:18:02.056Z,95329.48
2022-09-07T09:19:02.036Z,95324.58
2022-09-07T09:20:02.016Z,95321.41
2022-09-07T09:21:02.018Z,95327.63
2022-09-07T09:22:02.009Z,95327.92
2022-09-07T09:23:02.226Z,95321.18
2022-09-07T09:24:01.987Z,95317.74
2022-09-07T09:25:01.981Z,95320.78
2022-09-07T09:26:01.967Z,95320.72
2022-09-07T09:27:01.964Z,95320.53
2022-09-07T09:28:01.967Z,95321.09
2022-09-07T09:29:01.953Z,95319.62
2022-09-07T09:30:01.944Z,95322.33
2022-09-07T09:31:01.988Z,95316.76
2022-09-07T09:32:01.909Z,95321.33
2022-09-07T09:33:01.936Z,95318.97
2022-09-07T09:34:01.891Z,95316.66
2022-09-07T09:35:01.889Z,95316.27
2022-09-07T09:36:01.912Z,95320.05
2022-09-07T09:37:01.862Z,95309.89
2022-09-07T09:38:01.876Z,95312.88
2022-09-07T09:39:01.857Z,95306.00
2022-09-07T09:40:02.959Z,95304.32
2022-09-07T09:41:01.865Z,95305.16
2022-09-07T09:42:01.839Z,95300.03
2022-09-07T09:43:01.872Z,95302.86
2022-09-07T09:44:01.808Z,95299.95
2022-09-07T09:45:01.797Z,95298.60
2022-09-07T09:46:17.230Z,95295.03
2022-09-07T09:48:01.834Z,95296.62
2022-09-07T09:49:01.772Z,95294.43
2022-09-07T09:50:01.775Z,95293.23
2022-09-07T09:53:02.301Z,95285.31
2022-09-07T09:54:01.733Z,95283.78
2022-09-07T09:56:01.701Z,95287.66
2022-09-07T09:57:01.692Z,95277.77
2022-09-07T09:59:05.328Z,95281.36
2022-09-07T10:00:06.977Z,95276.08
2022-09-07T10:04:04.716Z,95279.45
2022-09-07T10:05:01.635Z,95273.08
2022-09-07T10:06:01.628Z,95271.18
2022-09-07T10:07:01.596Z,95269.12
2022-09-07T10:08:01.599Z,95267.23
2022-09-07T10:09:01.592Z,95258.48
2022-09-07T10:10:01.580Z,95262.58
2022-09-07T10:11:01.587Z,95261.91
2022-09-07T10:12:09.077Z,95259.17
2022-09-07T10:13:01.563Z,95256.66
2022-09-07T10:14:01.545Z,95253.02
2022-09-07T10:15:01.532Z,95251.23
2022-09-07T10:16:01.581Z,95246.39
2022-09-07T10:17:02.039Z,95245.89
2022-09-07T10:18:01.511Z,95242.07
2022-09-07T10:19:01.505Z,95240.89
2022-09-07T10:20:01.505Z,95249.63
2022-09-07T10:21:01.472Z,95241.24
2022-09-07T10:22:01.485Z,95241.15
2022-09-07T10:23:01.474Z,95238.73
2022-09-07T10:24:01.454Z,95240.74
2022-09-07T10:25:01.458Z,95239.87
2022-09-07T10:26:01.450Z,95239.02
2022-09-07T10:27:01.424Z,95229.83
2022-09-07T10:28:01.438Z,95228.27
2022-09-07T10:29:09.283Z,95229.83
2022-09-07T10:30:01.407Z,95230.78
2022-09-07T10:31:01.504Z,95228.11
2022-09-07T10:32:01.401Z,95231.67
2022-09-07T10:33:01.378Z,95226.11
2022-09-07T10:35:01.372Z,95226.92
2022-09-07T10:36:01.363Z,95219.19
2022-09-07T10:37:01.353Z,95216.42
2022-09-07T10:38:01.344Z,95219.12
2022-09-07T10:39:01.334Z,95219.99
2022-09-07T10:40:01.353Z,95217.06
2022-09-07T10:41:01.312Z,95214.55
2022-09-07T10:42:01.317Z,95213.91
2022-09-07T10:44:01.285Z,95214.99
2022-09-07T10:45:01.263Z,95210.75
2022-09-07T10:46:01.291Z,95209.80
2022-09-07T10:47:01.340Z,95208.69
2022-09-07T10:48:01.258Z,95210.68
2022-09-07T10:49:01.235Z,95209.73
2022-09-07T10:51:07.377Z,95205.41
2022-09-07T10:52:01.251Z,95200.98
2022-09-07T10:53:06.490Z,95201.85
2022-09-07T10:55:01.178Z,95202.53
2022-09-07T10:56:01.193Z,95198.62
2022-09-07T10:57:01.166Z,95201.39
2022-09-07T10:58:01.175Z,95196.58
2022-09-07T10:59:01.864Z,95201.30
2022-09-07T11:00:09.138Z,95192.53
2022-09-07T11:01:02.236Z,95193.23
2022-09-07T11:02:01.124Z,95193.81
2022-09-07T11:04:01.214Z,95194.65
2022-09-07T11:05:01.115Z,95192.04
2022-09-07T11:06:01.105Z,95190.58
2022-09-07T11:07:01.087Z,95182.77
2022-09-07T11:08:01.076Z,95180.52
2022-09-07T11:09:17.694Z,95178.88
2022-09-07T11:10:01.070Z,95180.87
2022-09-07T11:11:01.057Z,95177.66
2022-09-07T11:12:01.841Z,95177.38
2022-09-07T11:13:01.042Z,95171.28
2022-09-07T11:14:12.681Z,95173.83
2022-09-07T11:15:01.007Z,95169.66
2022-09-07T11:16:01.036Z,95171.58
2022-09-07T11:17:01.199Z,95174.01
2022-09-07T11:18:00.988Z,95166.83
2022-09-07T11:20:00.970Z,95170.65
2022-09-07T11:21:00.965Z,95168.55
2022-09-07T11:22:00.964Z,95164.56
2022-09-07T11:23:00.951Z,95165.58
2022-09-07T11:24:00.931Z,95164.19
2022-09-07T11:26:00.912Z,95164.53
2022-09-07T11:27:00.903Z,95171.64
2022-09-07T11:28:00.910Z,95165.57
2022-09-07T11:30:00.896Z,95164.28
2022-09-07T11:31:00.965Z,95167.12
2022-09-07T11:32:00.875Z,95160.20
2022-09-07T11:33:00.867Z,95165.91
2022-09-07T11:35:00.847Z,95164.98
2022-09-07T11:36:00.842Z,95162.66
2022-09-07T11:37:00.830Z,95164.47
2022-09-07T11:38:00.808Z,95162.48
2022-09-07T11:39:00.812Z,95162.23
2022-09-07T11:40:00.844Z,95165.36
2022-09-07T11:41:00.802Z,95153.91
2022-09-07T11:42:01.010Z,95156.27
2022-09-07T11:43:00.770Z,95154.33
2022-09-07T11:44:00.753Z,95151.82
2022-09-07T11:45:00.750Z,95155.29
2022-09-07T11:46:00.782Z,95151.67
2022-09-07T11:47:00.755Z,95148.03
2022-09-07T11:48:00.723Z,95148.36
2022-09-07T11:49:00.728Z,95152.27
2022-09-07T11:50:00.714Z,95150.38
2022-09-07T11:51:00.716Z,95155.23
2022-09-07T11:52:04.980Z,95150.55
2022-09-07T11:53:00.725Z,95151.48
2022-09-07T11:54:00.665Z,95150.27
2022-09-07T11:55:00.679Z,95147.52
2022-09-07T11:56:00.646Z,95139.11
2022-09-07T11:57:00.659Z,95144.66
2022-09-07T11:58:00.636Z,95141.03
2022-09-07T11:59:00.660Z,95138.51
2022-09-07T12:00:00.622Z,95134.78
2022-09-07T12:01:00.608Z,95137.39
2022-09-07T12:02:00.598Z,95131.67
2022-09-07T12:03:01.178Z,95133.38
2022-09-07T12:04:00.717Z,95137.28
2022-09-07T12:05:00.650Z,95136.86
2022-09-07T12:06:00.584Z,95134.52
2022-09-07T12:07:00.573Z,95138.60
2022-09-07T12:08:00.557Z,95134.09
2022-09-07T12:09:00.555Z,95133.58
2022-09-07T12:10:00.536Z,95133.56
2022-09-07T12:11:00.546Z,95128.11
2022-09-07T12:12:00.524Z,95132.17
2022-09-07T12:13:00.507Z,95126.44
2022-09-07T12:14:00.508Z,95124.73
2022-09-07T12:15:00.498Z,95119.87
2022-09-07T12:16:00.532Z,95121.86
2022-09-07T12:17:00.504Z,95116.75
2022-09-07T12:18:00.463Z,95112.07